sensor_id;sensor_type;location;lat;lon;timestamp;pressure;altitude;pressure_sealevel;temperature;humidity
35443;BME280;21561;55.654;37.592;2024-02-16T00:01:01;100981.72;;;-10.75;100.00
35443;BME280;21561;55.654;37.592;2024-02-16T00:03:29;100968.16;;;-10.77;100.00
35443;BME280;21561;55.654;37.592;2024-02-16T00:05:56;100970.34;;;-10.80;100.00
35443;BME280;21561;55.654;37.592;2024-02-16T00:08:23;100966.66;;;-10.84;100.00
35443;BME280;21561;55.654;37.592;2024-02-16T00:10:50;100966.53;;;-10.85;100.00
35443;BME280;21561;55.654;37.592;2024-02-16T00:13:17;100975.66;;;-10.86;100.00
35443;BME280;21561;55.654;37.592;2024-02-16T00:15:44;100973.91;;;-10.87;100.00
35443;BME280;21561;55.654;37.592;2024-02-16T00:18:11;100974.06;;;-10.85;100.00
35443;BME280;21561;55.654;37.592;2024-02-16T00:20:39;100976.56;;;-10.85;100.00
35443;BME280;21561;55.654;37.592;2024-02-16T00:23:06;100969.03;;;-10.85;100.00
35443;BME280;21561;55.654;37.592;2024-02-16T00:25:33;100960.75;;;-10.84;100.00
35443;BME280;21561;55.654;37.592;2024-02-16T00:28:00;100957.38;;;-10.85;100.00
35443;BME280;21561;55.654;37.592;2024-02-16T00:30:27;100956.78;;;-10.82;100.00
35443;BME280;21561;55.654;37.592;2024-02-16T00:32:54;100959.28;;;-10.82;100.00
35443;BME280;21561;55.654;37.592;2024-02-16T00:35:21;100963.25;;;-10.84;100.00
35443;BME280;21561;55.654;37.592;2024-02-16T00:37:49;100953.84;;;-10.87;100.00
35443;BME280;21561;55.654;37.592;2024-02-16T00:40:16;100951.16;;;-10.88;100.00
35443;BME280;21561;55.654;37.592;2024-02-16T00:42:42;100948.66;;;-10.88;100.00
35443;BME280;21561;55.654;37.592;2024-02-16T00:45:09;100944.09;;;-10.84;100.00
35443;BME280;21561;55.654;37.592;2024-02-16T00:47:36;100940.69;;;-10.84;100.00
35443;BME280;21561;55.654;37.592;2024-02-16T00:50:03;100945.00;;;-10.83;100.00
35443;BME280;21561;55.654;37.592;2024-02-16T00:52:32;100937.63;;;-10.82;100.00
35443;BME280;21561;55.654;37.592;2024-02-16T00:54:59;100945.28;;;-10.80;100.00
35443;BME280;21561;55.654;37.592;2024-02-16T00:57:26;100947.06;;;-10.79;100.00
35443;BME280;21561;55.654;37.592;2024-02-16T00:59:53;100942.91;;;-10.79;100.00
35443;BME280;21561;55.654;37.592;2024-02-16T01:02:21;100940.56;;;-10.77;100.00
35443;BME280;21561;55.654;37.592;2024-02-16T01:04:50;100943.38;;;-10.74;100.00
35443;BME280;21561;55.654;37.592;2024-02-16T01:07:18;100943.53;;;-10.72;100.00
35443;BME280;21561;55.654;37.592;2024-02-16T01:09:45;100944.09;;;-10.75;100.00
35443;BME280;21561;55.654;37.592;2024-02-16T01:12:12;100942.34;;;-10.76;100.00
35443;BME280;21561;55.654;37.592;2024-02-16T01:14:39;100950.91;;;-10.74;100.00
35443;BME280;21561;55.654;37.592;2024-02-16T01:17:06;100949.13;;;-10.75;100.00
35443;BME280;21561;55.654;37.592;2024-02-16T01:19:33;100952.38;;;-10.76;100.00
35443;BME280;21561;55.654;37.592;2024-02-16T01:22:00;100958.13;;;-10.77;100.00
35443;BME280;21561;55.654;37.592;2024-02-16T01:24:27;100944.84;;;-10.76;100.00
35443;BME280;21561;55.654;37.592;2024-02-16T01:26:54;100954.13;;;-10.75;100.00
35443;BME280;21561;55.654;37.592;2024-02-16T01:29:21;100950.63;;;-10.68;100.00
35443;BME280;21561;55.654;37.592;2024-02-16T01:31:48;100946.63;;;-10.66;100.00
35443;BME280;21561;55.654;37.592;2024-02-16T01:34:14;100948.25;;;-10.67;100.00
35443;BME280;21561;55.654;37.592;2024-02-16T01:36:42;100943.25;;;-10.67;100.00
35443;BME280;21561;55.654;37.592;2024-02-16T01:39:09;100941.47;;;-10.68;100.00
35443;BME280;21561;55.654;37.592;2024-02-16T01:41:39;100939.69;;;-10.69;100.00
35443;BME280;21561;55.654;37.592;2024-02-16T01:44:06;100947.06;;;-10.70;100.00
35443;BME280;21561;55.654;37.592;2024-02-16T01:46:35;100951.22;;;-10.71;100.00
35443;BME280;21561;55.654;37.592;2024-02-16T01:49:02;100952.97;;;-10.70;100.00
35443;BME280;21561;55.654;37.592;2024-02-16T01:51:29;100942.94;;;-10.70;100.00
35443;BME280;21561;55.654;37.592;2024-02-16T01:53:57;100934.69;;;-10.69;100.00
35443;BME280;21561;55.654;37.592;2024-02-16T01:56:24;100933.66;;;-10.71;100.00
35443;BME280;21561;55.654;37.592;2024-02-16T01:58:53;100930.84;;;-10.74;100.00
35443;BME280;21561;55.654;37.592;2024-02-16T02:01:20;100935.84;;;-10.74;100.00
35443;BME280;21561;55.654;37.592;2024-02-16T02:03:46;100939.41;;;-10.72;100.00
35443;BME280;21561;55.654;37.592;2024-02-16T02:06:13;100932.75;;;-10.71;100.00
35443;BME280;21561;55.654;37.592;2024-02-16T02:08:40;100931.16;;;-10.71;100.00
35443;BME280;21561;55.654;37.592;2024-02-16T02:11:07;100922.88;;;-10.70;100.00
35443;BME280;21561;55.654;37.592;2024-02-16T02:13:34;100933.66;;;-10.71;100.00
35443;BME280;21561;55.654;37.592;2024-02-16T02:16:02;100932.91;;;-10.70;100.00
35443;BME280;21561;55.654;37.592;2024-02-16T02:18:30;100932.91;;;-10.70;100.00
35443;BME280;21561;55.654;37.592;2024-02-16T02:20:57;100927.88;;;-10.70;100.00
35443;BME280;21561;55.654;37.592;2024-02-16T02:23:23;100935.41;;;-10.70;100.00
35443;BME280;21561;55.654;37.592;2024-02-16T02:25:50;100934.38;;;-10.72;100.00
35443;BME280;21561;55.654;37.592;2024-02-16T02:28:17;100931.16;;;-10.71;100.00
35443;BME280;21561;55.654;37.592;2024-02-16T02:30:45;100929.06;;;-10.75;100.00
35443;BME280;21561;55.654;37.592;2024-02-16T02:33:12;100940.56;;;-10.77;100.00
35443;BME280;21561;55.654;37.592;2024-02-16T02:35:40;100925.50;;;-10.77;100.00
35443;BME280;21561;55.654;37.592;2024-02-16T02:38:07;100934.69;;;-10.69;100.00
35443;BME280;21561;55.654;37.592;2024-02-16T02:40:34;100926.41;;;-10.68;100.00
35443;BME280;21561;55.654;37.592;2024-02-16T02:43:01;100926.41;;;-10.68;100.00
35443;BME280;21561;55.654;37.592;2024-02-16T02:45:28;100932.19;;;-10.69;100.00
35443;BME280;21561;55.654;37.592;2024-02-16T02:47:55;100930.41;;;-10.70;100.00
35443;BME280;21561;55.654;37.592;2024-02-16T02:50:22;100926.13;;;-10.71;100.00
35443;BME280;21561;55.654;37.592;2024-02-16T02:52:49;100929.38;;;-10.72;100.00
35443;BME280;21561;55.654;37.592;2024-02-16T02:55:16;100935.09;;;-10.73;100.00
35443;BME280;21561;55.654;37.592;2024-02-16T02:57:43;100937.91;;;-10.70;100.00
35443;BME280;21561;55.654;37.592;2024-02-16T03:00:10;100933.22;;;-10.67;100.00
35443;BME280;21561;55.654;37.592;2024-02-16T03:02:39;100934.69;;;-10.69;100.00
35443;BME280;21561;55.654;37.592;2024-02-16T03:05:07;100943.81;;;-10.69;100.00
35443;BME280;21561;55.654;37.592;2024-02-16T03:07:34;100951.94;;;-10.72;100.00
35443;BME280;21561;55.654;37.592;2024-02-16T03:10:02;100945.88;;;-10.74;100.00
35443;BME280;21561;55.654;37.592;2024-02-16T03:12:31;100951.22;;;-10.71;100.00
35443;BME280;21561;55.654;37.592;2024-02-16T03:14:59;100947.06;;;-10.70;100.00
35443;BME280;21561;55.654;37.592;2024-02-16T03:17:25;100952.97;;;-10.70;100.00
35443;BME280;21561;55.654;37.592;2024-02-16T03:19:52;100947.94;;;-10.70;100.00
35443;BME280;21561;55.654;37.592;2024-02-16T03:22:20;100954.75;;;-10.69;100.00
35443;BME280;21561;55.654;37.592;2024-02-16T03:24:47;100948.81;;;-10.69;100.00
35443;BME280;21561;55.654;37.592;2024-02-16T03:27:14;100956.22;;;-10.71;100.00
35443;BME280;21561;55.654;37.592;2024-02-16T03:29:41;100949.59;;;-10.70;100.00
35443;BME280;21561;55.654;37.592;2024-02-16T03:32:08;100957.41;;;-10.67;100.00
35443;BME280;21561;55.654;37.592;2024-02-16T03:34:35;100962.72;;;-10.64;100.00
35443;BME280;21561;55.654;37.592;2024-02-16T03:37:02;100956.81;;;-10.65;100.00
35443;BME280;21561;55.654;37.592;2024-02-16T03:39:29;100965.22;;;-10.64;100.00
35443;BME280;21561;55.654;37.592;2024-02-16T03:41:56;100961.84;;;-10.65;100.00
35443;BME280;21561;55.654;37.592;2024-02-16T03:44:22;100977.03;;;-10.63;100.00
35443;BME280;21561;55.654;37.592;2024-02-16T03:46:49;100974.97;;;-10.59;100.00
35443;BME280;21561;55.654;37.592;2024-02-16T03:49:19;100979.72;;;-10.53;100.00
35443;BME280;21561;55.654;37.592;2024-02-16T03:51:46;100976.59;;;-10.50;100.00
35443;BME280;21561;55.654;37.592;2024-02-16T03:54:14;100966.56;;;-10.50;100.00
35443;BME280;21561;55.654;37.592;2024-02-16T03:56:41;100961.88;;;-10.47;100.00
35443;BME280;21561;55.654;37.592;2024-02-16T03:59:07;100963.63;;;-10.46;100.00
35443;BME280;21561;55.654;37.592;2024-02-16T04:01:37;100958.75;;;-10.45;100.00
35443;BME280;21561;55.654;37.592;2024-02-16T04:04:04;100953.56;;;-10.46;100.00
35443;BME280;21561;55.654;37.592;2024-02-16T04:06:30;100952.69;;;-10.47;100.00
35443;BME280;21561;55.654;37.592;2024-02-16T04:08:58;100948.56;;;-10.46;100.00
35443;BME280;21561;55.654;37.592;2024-02-16T04:11:25;100951.53;;;-10.50;100.00
35443;BME280;21561;55.654;37.592;2024-02-16T04:13:56;100946.19;;;-10.53;100.00
35443;BME280;21561;55.654;37.592;2024-02-16T04:16:22;100944.84;;;-10.59;100.00
35443;BME280;21561;55.654;37.592;2024-02-16T04:18:52;100944.59;;;-10.62;100.00
35443;BME280;21561;55.654;37.592;2024-02-16T04:21:19;100946.78;;;-10.65;100.00
35443;BME280;21561;55.654;37.592;2024-02-16T04:23:47;100950.78;;;-10.67;100.00
35443;BME280;21561;55.654;37.592;2024-02-16T04:26:15;100940.13;;;-10.64;100.00
35443;BME280;21561;55.654;37.592;2024-02-16T04:28:41;100937.94;;;-10.61;100.00
35443;BME280;21561;55.654;37.592;2024-02-16T04:31:08;100940.59;;;-10.60;100.00
35443;BME280;21561;55.654;37.592;2024-02-16T04:33:35;100928.50;;;-10.64;100.00
35443;BME280;21561;55.654;37.592;2024-02-16T04:36:05;100926.00;;;-10.64;100.00
35443;BME280;21561;55.654;37.592;2024-02-16T04:38:34;100923.47;;;-10.64;100.00
35443;BME280;21561;55.654;37.592;2024-02-16T04:41:00;100928.78;;;-10.61;100.00
35443;BME280;21561;55.654;37.592;2024-02-16T04:43:27;100935.72;;;-10.58;100.00
35443;BME280;21561;55.654;37.592;2024-02-16T04:45:54;100945.91;;;-10.57;100.00
35443;BME280;21561;55.654;37.592;2024-02-16T04:48:21;100938.25;;;-10.58;100.00
35443;BME280;21561;55.654;37.592;2024-02-16T04:50:48;100941.31;;;-10.61;100.00
35443;BME280;21561;55.654;37.592;2024-02-16T04:53:15;100948.56;;;-10.64;100.00
35443;BME280;21561;55.654;37.592;2024-02-16T04:55:42;100942.94;;;-10.61;100.00
35443;BME280;21561;55.654;37.592;2024-02-16T04:58:08;100939.84;;;-10.59;100.00
35443;BME280;21561;55.654;37.592;2024-02-16T05:00:39;100939.84;;;-10.59;100.00
35443;BME280;21561;55.654;37.592;2024-02-16T05:03:06;100942.06;;;-10.62;100.00
35443;BME280;21561;55.654;37.592;2024-02-16T05:05:34;100947.97;;;-10.61;100.00
35443;BME280;21561;55.654;37.592;2024-02-16T05:08:00;100936.16;;;-10.62;100.00
35443;BME280;21561;55.654;37.592;2024-02-16T05:10:27;100933.78;;;-10.61;100.00
35443;BME280;21561;55.654;37.592;2024-02-16T05:12:54;100936.44;;;-10.59;100.00
35443;BME280;21561;55.654;37.592;2024-02-16T05:15:22;100937.34;;;-10.59;100.00
35443;BME280;21561;55.654;37.592;2024-02-16T05:17:49;100934.69;;;-10.60;100.00
35443;BME280;21561;55.654;37.592;2024-02-16T05:20:16;100933.78;;;-10.61;100.00
35443;BME280;21561;55.654;37.592;2024-02-16T05:22:47;100931.91;;;-10.54;100.00
35443;BME280;21561;55.654;37.592;2024-02-16T05:25:18;100929.09;;;-10.58;100.00
35443;BME280;21561;55.654;37.592;2024-02-16T05:27:45;100929.38;;;-10.63;100.00
35443;BME280;21561;55.654;37.592;2024-02-16T05:30:14;100926.72;;;-10.65;100.00
35443;BME280;21561;55.654;37.592;2024-02-16T05:32:42;100934.25;;;-10.65;100.00
35443;BME280;21561;55.654;37.592;2024-02-16T05:35:11;100934.09;;;-10.66;100.00
35443;BME280;21561;55.654;37.592;2024-02-16T05:37:40;100932.34;;;-10.67;100.00
35443;BME280;21561;55.654;37.592;2024-02-16T05:40:11;100946.47;;;-10.68;100.00
35443;BME280;21561;55.654;37.592;2024-02-16T05:42:57;100948.97;;;-10.68;100.00
35443;BME280;21561;55.654;37.592;2024-02-16T05:45:25;100959.16;;;-10.66;100.00
35443;BME280;21561;55.654;37.592;2024-02-16T05:47:54;100954.31;;;-10.65;100.00
35443;BME280;21561;55.654;37.592;2024-02-16T05:50:21;100967.16;;;-10.62;100.00
35443;BME280;21561;55.654;37.592;2024-02-16T05:52:49;100962.72;;;-10.56;100.00
35443;BME280;21561;55.654;37.592;2024-02-16T05:55:18;100973.94;;;-10.52;100.00
35443;BME280;21561;55.654;37.592;2024-02-16T05:57:47;100966.56;;;-10.50;100.00
35443;BME280;21561;55.654;37.592;2024-02-16T06:00:14;100971.91;;;-10.47;100.00
35443;BME280;21561;55.654;37.592;2024-02-16T06:02:42;100973.38;;;-10.49;100.00
35443;BME280;21561;55.654;37.592;2024-02-16T06:05:09;100972.78;;;-10.47;100.00
35443;BME280;21561;55.654;37.592;2024-02-16T06:07:37;100980.75;;;-10.42;100.00
35443;BME280;21561;55.654;37.592;2024-02-16T06:10:07;100975.59;;;-10.35;100.00
35443;BME280;21561;55.654;37.592;2024-02-16T06:12:38;100960.94;;;-10.30;100.00
35443;BME280;21561;55.654;37.592;2024-02-16T06:15:05;100960.81;;;-10.32;100.00
35443;BME280;21561;55.654;37.592;2024-02-16T06:17:32;100960.09;;;-10.31;100.00
35443;BME280;21561;55.654;37.592;2024-02-16T06:19:59;100971.88;;;-10.30;100.00
35443;BME280;21561;55.654;37.592;2024-02-16T06:22:27;100964.47;;;-10.28;100.00
35443;BME280;21561;55.654;37.592;2024-02-16T06:24:54;100975.69;;;-10.25;100.00
35443;BME280;21561;55.654;37.592;2024-02-16T06:27:21;100974.97;;;-10.24;100.00
35443;BME280;21561;55.654;37.592;2024-02-16T06:29:48;100977.78;;;-10.21;100.00
35443;BME280;21561;55.654;37.592;2024-02-16T06:32:15;100975.44;;;-10.19;100.00
35443;BME280;21561;55.654;37.592;2024-02-16T06:34:43;100981.47;;;-10.17;100.00
35443;BME280;21561;55.654;37.592;2024-02-16T06:37:12;100981.91;;;-10.12;100.00
35443;BME280;21561;55.654;37.592;2024-02-16T06:39:39;100977.19;;;-10.09;100.00
35443;BME280;21561;55.654;37.592;2024-02-16T06:42:06;100975.69;;;-10.07;100.00
35443;BME280;21561;55.654;37.592;2024-02-16T06:44:33;100977.34;;;-10.08;100.00
35443;BME280;21561;55.654;37.592;2024-02-16T06:47:00;100975.69;;;-10.07;100.00
35443;BME280;21561;55.654;37.592;2024-02-16T06:49:27;100976.88;;;-10.04;100.00
35443;BME280;21561;55.654;37.592;2024-02-16T06:51:54;100976.31;;;-10.01;100.00
35443;BME280;21561;55.654;37.592;2024-02-16T06:54:22;100981.91;;;-9.95;100.00
35443;BME280;21561;55.654;37.592;2024-02-16T06:56:48;100975.41;;;-9.93;100.00
35443;BME280;21561;55.654;37.592;2024-02-16T06:59:18;100972.16;;;-9.92;100.00
35443;BME280;21561;55.654;37.592;2024-02-16T07:01:45;100969.19;;;-9.88;100.00
35443;BME280;21561;55.654;37.592;2024-02-16T07:04:12;100962.97;;;-9.83;100.00
35443;BME280;21561;55.654;37.592;2024-02-16T07:06:39;100965.63;;;-9.81;100.00
35443;BME280;21561;55.654;37.592;2024-02-16T07:09:06;100972.56;;;-9.79;100.00
35443;BME280;21561;55.654;37.592;2024-02-16T07:11:33;100970.34;;;-9.75;100.00
35443;BME280;21561;55.654;37.592;2024-02-16T07:14:01;100970.50;;;-9.74;100.00
35443;BME280;21561;55.654;37.592;2024-02-16T07:16:29;100965.34;;;-9.75;100.00
35443;BME280;21561;55.654;37.592;2024-02-16T07:18:57;100973.56;;;-9.68;100.00
35443;BME280;21561;55.654;37.592;2024-02-16T07:21:24;100969.16;;;-9.62;100.00
35443;BME280;21561;55.654;37.592;2024-02-16T07:23:53;100979.03;;;-9.54;100.00
35443;BME280;21561;55.654;37.592;2024-02-16T07:26:20;100968.38;;;-9.52;100.00
35443;BME280;21561;55.654;37.592;2024-02-16T07:28:47;100961.53;;;-9.44;100.00
35443;BME280;21561;55.654;37.592;2024-02-16T07:31:14;100962.56;;;-9.42;100.00
35443;BME280;21561;55.654;37.592;2024-02-16T07:33:41;100963.47;;;-9.42;100.00
35443;BME280;21561;55.654;37.592;2024-02-16T07:36:08;100961.38;;;-9.46;100.00
35443;BME280;21561;55.654;37.592;2024-02-16T07:38:35;100954.31;;;-9.50;100.00
35443;BME280;21561;55.654;37.592;2024-02-16T07:41:03;100954.47;;;-9.57;100.00
35443;BME280;21561;55.654;37.592;2024-02-16T07:43:35;100953.47;;;-9.59;100.00
35443;BME280;21561;55.654;37.592;2024-02-16T07:46:02;100951.69;;;-9.60;100.00
35443;BME280;21561;55.654;37.592;2024-02-16T07:48:30;100949.94;;;-9.61;100.00
35443;BME280;21561;55.654;37.592;2024-02-16T07:50:57;100949.06;;;-9.62;100.00
35443;BME280;21561;55.654;37.592;2024-02-16T07:53:30;100959.69;;;-9.64;100.00
35443;BME280;21561;55.654;37.592;2024-02-16T07:55:57;100966.50;;;-9.63;100.00
35443;BME280;21561;55.654;37.592;2024-02-16T07:58:25;100961.63;;;-9.62;100.00
35443;BME280;21561;55.654;37.592;2024-02-16T08:00:52;100961.16;;;-9.57;100.00
35443;BME280;21561;55.654;37.592;2024-02-16T08:03:21;100967.06;;;-9.57;100.00
35443;BME280;21561;55.654;37.592;2024-02-16T08:05:48;100959.66;;;-9.55;100.00
35443;BME280;21561;55.654;37.592;2024-02-16T08:08:15;100969.88;;;-9.54;100.00
35443;BME280;21561;55.654;37.592;2024-02-16T08:10:42;100970.88;;;-9.52;100.00
35443;BME280;21561;55.654;37.592;2024-02-16T08:13:09;100981.09;;;-9.50;100.00
35443;BME280;21561;55.654;37.592;2024-02-16T08:15:35;100993.66;;;-9.50;100.00
35443;BME280;21561;55.654;37.592;2024-02-16T08:18:02;100987.00;;;-9.50;100.00
35443;BME280;21561;55.654;37.592;2024-02-16T08:20:30;100993.81;;;-9.49;100.00
35443;BME280;21561;55.654;37.592;2024-02-16T08:22:56;101000.16;;;-9.44;100.00
35443;BME280;21561;55.654;37.592;2024-02-16T08:25:24;101001.59;;;-9.37;100.00
35443;BME280;21561;55.654;37.592;2024-02-16T08:27:51;101004.06;;;-9.28;100.00
35443;BME280;21561;55.654;37.592;2024-02-16T08:30:18;100998.88;;;-9.21;100.00
35443;BME280;21561;55.654;37.592;2024-02-16T08:32:45;100993.66;;;-9.14;100.00
35443;BME280;21561;55.654;37.592;2024-02-16T08:35:12;100988.75;;;-9.04;100.00
35443;BME280;21561;55.654;37.592;2024-02-16T08:37:41;100983.69;;;-8.95;100.00
35443;BME280;21561;55.654;37.592;2024-02-16T08:40:09;100989.25;;;-8.89;100.00
35443;BME280;21561;55.654;37.592;2024-02-16T08:42:41;100985.13;;;-8.88;100.00
35443;BME280;21561;55.654;37.592;2024-02-16T08:45:09;100989.25;;;-8.89;100.00
35443;BME280;21561;55.654;37.592;2024-02-16T08:47:36;100991.78;;;-8.89;100.00
35443;BME280;21561;55.654;37.592;2024-02-16T08:50:09;100984.22;;;-8.89;100.00
35443;BME280;21561;55.654;37.592;2024-02-16T08:52:36;100978.50;;;-8.96;100.00
35443;BME280;21561;55.654;37.592;2024-02-16T08:55:03;100983.41;;;-8.98;100.00
35443;BME280;21561;55.654;37.592;2024-02-16T08:57:31;100974.97;;;-8.98;100.00
35443;BME280;21561;55.654;37.592;2024-02-16T08:59:59;100984.88;;;-9.00;100.00
35443;BME280;21561;55.654;37.592;2024-02-16T09:02:26;100989.31;;;-8.97;100.00
35443;BME280;21561;55.654;37.592;2024-02-16T09:04:52;100978.03;;;-8.92;100.00
35443;BME280;21561;55.654;37.592;2024-02-16T09:07:19;100972.41;;;-8.90;100.00
35443;BME280;21561;55.654;37.592;2024-02-16T09:09:46;100989.69;;;-8.84;100.00
35443;BME280;21561;55.654;37.592;2024-02-16T09:12:13;100991.31;;;-8.85;100.00
35443;BME280;21561;55.654;37.592;2024-02-16T09:14:40;100997.84;;;-8.87;100.00
35443;BME280;21561;55.654;37.592;2024-02-16T09:17:07;100992.81;;;-8.87;100.00
35443;BME280;21561;55.654;37.592;2024-02-16T09:19:34;100989.69;;;-8.84;100.00
35443;BME280;21561;55.654;37.592;2024-02-16T09:22:01;100988.94;;;-8.83;100.00
35443;BME280;21561;55.654;37.592;2024-02-16T09:24:32;100986.97;;;-8.68;100.00
35443;BME280;21561;55.654;37.592;2024-02-16T09:26:59;100981.91;;;-8.68;100.00
35443;BME280;21561;55.654;37.592;2024-02-16T09:29:30;100981.78;;;-8.70;100.00
35443;BME280;21561;55.654;37.592;2024-02-16T09:31:57;100986.03;;;-8.69;100.00
35443;BME280;21561;55.654;37.592;2024-02-16T09:34:25;100977.91;;;-8.66;100.00
35443;BME280;21561;55.654;37.592;2024-02-16T09:36:52;100973.47;;;-8.69;100.00
35443;BME280;21561;55.654;37.592;2024-02-16T09:39:19;100973.06;;;-8.73;100.00
35443;BME280;21561;55.654;37.592;2024-02-16T09:41:50;100964.63;;;-8.74;100.00
35443;BME280;21561;55.654;37.592;2024-02-16T09:44:17;100970.88;;;-8.79;100.00
35443;BME280;21561;55.654;37.592;2024-02-16T09:46:46;100970.13;;;-8.78;100.00
35443;BME280;21561;55.654;37.592;2024-02-16T09:49:14;100960.34;;;-8.75;100.00
35443;BME280;21561;55.654;37.592;2024-02-16T09:51:41;100959.13;;;-8.70;100.00
35443;BME280;21561;55.654;37.592;2024-02-16T09:54:09;100956.41;;;-8.62;100.00
35443;BME280;21561;55.654;37.592;2024-02-16T09:56:36;100946.88;;;-8.56;100.00
35443;BME280;21561;55.654;37.592;2024-02-16T09:59:03;100943.72;;;-8.45;100.00
35443;BME280;21561;55.654;37.592;2024-02-16T10:01:34;100934.34;;;-8.27;100.00
35443;BME280;21561;55.654;37.592;2024-02-16T10:04:07;100927.53;;;-8.28;100.00
35443;BME280;21561;55.654;37.592;2024-02-16T10:06:46;100927.47;;;-8.19;100.00
35443;BME280;21561;55.654;37.592;2024-02-16T10:09:28;100925.81;;;-8.19;100.00
35443;BME280;21561;55.654;37.592;2024-02-16T10:11:59;100924.16;;;-8.29;100.00
35443;BME280;21561;55.654;37.592;2024-02-16T10:14:27;100919.84;;;-8.30;100.00
35443;BME280;21561;55.654;37.592;2024-02-16T10:17:04;100928.41;;;-8.28;100.00
35443;BME280;21561;55.654;37.592;2024-02-16T10:19:33;100922.56;;;-8.37;100.00
35443;BME280;21561;55.654;37.592;2024-02-16T10:22:12;100931.78;;;-8.37;100.00
35443;BME280;21561;55.654;37.592;2024-02-16T10:24:40;100928.63;;;-8.45;100.00
35443;BME280;21561;55.654;37.592;2024-02-16T10:27:16;100929.84;;;-8.40;100.00
35443;BME280;21561;55.654;37.592;2024-02-16T10:29:47;100938.56;;;-8.36;100.00
35443;BME280;21561;55.654;37.592;2024-02-16T10:32:18;100929.38;;;-8.36;100.00
35443;BME280;21561;55.654;37.592;2024-02-16T10:34:45;100930.13;;;-8.37;100.00
35443;BME280;21561;55.654;37.592;2024-02-16T10:37:15;100931.63;;;-8.39;100.00
35443;BME280;21561;55.654;37.592;2024-02-16T10:39:43;100928.88;;;-8.42;100.00
35443;BME280;21561;55.654;37.592;2024-02-16T10:42:12;100929.50;;;-8.45;100.00
35443;BME280;21561;55.654;37.592;2024-02-16T10:44:42;100925.34;;;-8.44;100.00
35443;BME280;21561;55.654;37.592;2024-02-16T10:47:10;100931.88;;;-8.46;100.00
35443;BME280;21561;55.654;37.592;2024-02-16T10:49:37;100934.25;;;-8.48;100.00
35443;BME280;21561;55.654;37.592;2024-02-16T10:52:05;100927.13;;;-8.43;100.00
35443;BME280;21561;55.654;37.592;2024-02-16T10:54:33;100922.28;;;-8.40;100.00
35443;BME280;21561;55.654;37.592;2024-02-16T10:57:01;100926.09;;;-8.35;100.00
35443;BME280;21561;55.654;37.592;2024-02-16T10:59:37;100928.56;;;-8.26;100.00
35443;BME280;21561;55.654;37.592;2024-02-16T11:02:06;100928.06;;;-8.22;100.00
35443;BME280;21561;55.654;37.592;2024-02-16T11:04:39;100938.06;;;-8.13;100.00
35443;BME280;21561;55.654;37.592;2024-02-16T11:07:17;100938.00;;;-8.04;100.00
35443;BME280;21561;55.654;37.592;2024-02-16T11:09:45;100929.69;;;-8.03;100.00
35443;BME280;21561;55.654;37.592;2024-02-16T11:12:13;100939.69;;;-7.95;100.00
35443;BME280;21561;55.654;37.592;2024-02-16T11:14:48;100937.47;;;-7.81;100.00
35443;BME280;21561;55.654;37.592;2024-02-16T11:17:21;100932.94;;;-7.75;100.00
35443;BME280;21561;55.654;37.592;2024-02-16T11:19:48;100933.50;;;-7.69;100.00
35443;BME280;21561;55.654;37.592;2024-02-16T11:22:20;100935.00;;;-7.71;99.17
35443;BME280;21561;55.654;37.592;2024-02-16T11:24:48;100926.75;;;-7.79;99.48
35443;BME280;21561;55.654;37.592;2024-02-16T11:27:17;100931.66;;;-7.91;99.63
35443;BME280;21561;55.654;37.592;2024-02-16T11:29:49;100924.22;;;-7.89;100.00
35443;BME280;21561;55.654;37.592;2024-02-16T11:32:18;100923.31;;;-7.90;99.75
35443;BME280;21561;55.654;37.592;2024-02-16T11:34:46;100924.59;;;-7.95;100.00
35443;BME280;21561;55.654;37.592;2024-02-16T11:37:13;100914.75;;;-7.92;100.00
35443;BME280;21561;55.654;37.592;2024-02-16T11:39:41;100923.94;;;-7.92;100.00
35443;BME280;21561;55.654;37.592;2024-02-16T11:42:13;100923.44;;;-7.98;99.94
35443;BME280;21561;55.654;37.592;2024-02-16T11:44:54;100919.41;;;-7.96;100.00
35443;BME280;21561;55.654;37.592;2024-02-16T11:47:24;100914.50;;;-7.95;100.00
35443;BME280;21561;55.654;37.592;2024-02-16T11:50:05;100915.03;;;-7.89;100.00
35443;BME280;21561;55.654;37.592;2024-02-16T11:52:33;100919.78;;;-7.92;100.00
35443;BME280;21561;55.654;37.592;2024-02-16T11:55:02;100915.50;;;-7.93;100.00
35443;BME280;21561;55.654;37.592;2024-02-16T11:57:31;100912.72;;;-7.96;100.00
35443;BME280;21561;55.654;37.592;2024-02-16T12:00:00;100910.84;;;-7.98;99.85
35443;BME280;21561;55.654;37.592;2024-02-16T12:02:30;100902.28;;;-7.90;100.00
35443;BME280;21561;55.654;37.592;2024-02-16T12:04:58;100910.94;;;-7.97;100.00
35443;BME280;21561;55.654;37.592;2024-02-16T12:07:30;100914.72;;;-8.02;99.86
35443;BME280;21561;55.654;37.592;2024-02-16T12:10:02;100911.44;;;-8.01;100.00
35443;BME280;21561;55.654;37.592;2024-02-16T12:12:32;100912.19;;;-8.02;100.00
35443;BME280;21561;55.654;37.592;2024-02-16T12:14:59;100924.16;;;-7.99;99.97
35443;BME280;21561;55.654;37.592;2024-02-16T12:17:27;100921.94;;;-7.96;100.00
35443;BME280;21561;55.654;37.592;2024-02-16T12:19:54;100929.41;;;-7.88;100.00
35443;BME280;21561;55.654;37.592;2024-02-16T12:22:21;100927.66;;;-7.78;100.00
35443;BME280;21561;55.654;37.592;2024-02-16T12:24:51;100932.72;;;-7.68;100.00
35443;BME280;21561;55.654;37.592;2024-02-16T12:27:18;100929.25;;;-7.60;100.00
35443;BME280;21561;55.654;37.592;2024-02-16T12:29:45;100922.97;;;-7.55;100.00